createdAt,value
2023-07-08T00:00:53.990Z,5.60
2023-07-08T00:03:41.330Z,8.40
2023-07-08T00:06:16.686Z,6.10
2023-07-08T00:08:43.225Z,5.80
2023-07-08T00:11:12.108Z,5.90
2023-07-08T00:13:38.843Z,9.20
2023-07-08T00:16:12.630Z,6.90
2023-07-08T00:18:39.918Z,6.70
2023-07-08T00:21:15.795Z,4.80
2023-07-08T00:23:46.747Z,5.30
2023-07-08T00:26:24.486Z,6.20
2023-07-08T00:28:51.404Z,5.60
2023-07-08T00:31:24.077Z,4.80
2023-07-08T00:33:51.231Z,4.20
2023-07-08T00:36:19.268Z,5.60
2023-07-08T00:38:46.573Z,8.20
2023-07-08T00:41:31.783Z,6.60
2023-07-08T00:44:00.374Z,7.10
2023-07-08T00:46:30.089Z,6.50
2023-07-08T00:49:08.834Z,4.60
2023-07-08T00:51:40.277Z,6.30
2023-07-08T00:54:15.112Z,6.60
2023-07-08T00:56:41.669Z,4.90
2023-07-08T00:59:18.959Z,5.30
2023-07-08T01:01:46.769Z,5.40
2023-07-08T01:04:18.383Z,6.30
2023-07-08T01:06:47.633Z,5.50
2023-07-08T01:09:16.475Z,10.20
2023-07-08T01:11:43.256Z,5.60
2023-07-08T01:14:14.779Z,6.30
2023-07-08T01:16:42.244Z,5.20
2023-07-08T01:19:16.448Z,4.90
2023-07-08T01:22:02.942Z,7.00
2023-07-08T01:24:32.102Z,6.50
2023-07-08T01:27:01.203Z,6.10
2023-07-08T01:29:28.694Z,4.90
2023-07-08T01:31:57.057Z,5.60
2023-07-08T01:34:24.116Z,6.20
2023-07-08T01:36:56.126Z,6.10
2023-07-08T01:39:24.758Z,6.20
2023-07-08T01:41:52.095Z,6.00
2023-07-08T01:44:35.339Z,5.10
2023-07-08T01:47:13.868Z,6.20
2023-07-08T01:49:42.638Z,6.60
2023-07-08T01:52:11.120Z,5.60
2023-07-08T01:54:37.746Z,5.40
2023-07-08T01:57:05.167Z,6.10
2023-07-08T01:59:31.852Z,6.00
2023-07-08T02:01:58.900Z,6.30
2023-07-08T02:04:27.278Z,5.50
2023-07-08T02:06:55.916Z,6.90
2023-07-08T02:09:23.536Z,5.50
2023-07-08T02:11:50.286Z,6.50
2023-07-08T02:14:17.736Z,5.60
2023-07-08T02:16:44.540Z,6.70
2023-07-08T02:19:12.322Z,7.10
2023-07-08T02:21:39.660Z,7.80
2023-07-08T02:24:08.357Z,7.20
2023-07-08T02:26:36.131Z,6.80
2023-07-08T02:29:03.345Z,6.50
2023-07-08T02:31:30.932Z,10.70
2023-07-08T02:33:57.574Z,8.90
2023-07-08T02:36:24.145Z,9.20
2023-07-08T02:38:51.058Z,7.70
2023-07-08T02:41:17.920Z,10.10
2023-07-08T02:43:44.533Z,9.40
2023-07-08T02:46:11.466Z,11.10
2023-07-08T02:48:39.031Z,7.60
2023-07-08T02:51:06.843Z,9.10
2023-07-08T02:53:33.468Z,7.30
2023-07-08T02:56:00.698Z,8.50
2023-07-08T02:58:28.048Z,7.20
2023-07-08T03:00:59.776Z,8.00
2023-07-08T03:03:29.675Z,8.70
2023-07-08T03:06:02.314Z,7.50
2023-07-08T03:08:30.060Z,8.10
2023-07-08T03:11:07.820Z,8.80
2023-07-08T03:13:35.399Z,8.10
2023-07-08T03:16:03.073Z,10.80
2023-07-08T03:18:30.173Z,8.10
2023-07-08T03:20:58.604Z,11.40
2023-07-08T03:23:26.975Z,7.70
2023-07-08T03:25:53.757Z,10.70
2023-07-08T03:28:21.099Z,10.50
2023-07-08T03:30:52.882Z,7.60
2023-07-08T03:33:20.592Z,7.90
2023-07-08T03:35:47.514Z,11.70
2023-07-08T03:38:14.106Z,9.00
2023-07-08T03:40:41.049Z,12.80
2023-07-08T03:43:08.833Z,8.60
2023-07-08T03:45:36.783Z,8.00
2023-07-08T03:48:04.970Z,10.90
2023-07-08T03:50:32.277Z,10.70
2023-07-08T03:52:58.966Z,10.50
2023-07-08T03:55:29.025Z,9.10
2023-07-08T03:57:56.398Z,8.00
2023-07-08T04:00:23.305Z,9.60
2023-07-08T04:02:49.994Z,9.00
2023-07-08T04:05:23.263Z,10.10
2023-07-08T04:07:49.905Z,10.60
2023-07-08T04:10:19.561Z,12.00
2023-07-08T04:12:46.211Z,11.60
2023-07-08T04:15:13.716Z,11.10
2023-07-08T04:17:45.714Z,9.50
2023-07-08T04:20:16.120Z,9.50
2023-07-08T04:22:42.737Z,8.80
2023-07-08T04:25:12.683Z,10.40
2023-07-08T04:27:39.900Z,13.70
2023-07-08T04:30:07.637Z,12.00
2023-07-08T04:32:34.298Z,10.90
2023-07-08T04:35:00.867Z,8.70
2023-07-08T04:37:27.493Z,16.70
2023-07-08T04:39:54.051Z,13.00
2023-07-08T04:42:20.573Z,14.90
2023-07-08T04:44:47.147Z,15.20
2023-07-08T04:47:14.307Z,12.50
2023-07-08T04:49:43.918Z,10.90
2023-07-08T04:52:11.118Z,13.00
2023-07-08T04:54:37.766Z,10.50
2023-07-08T04:57:04.947Z,11.40
2023-07-08T04:59:34.983Z,10.80
2023-07-08T05:02:01.595Z,9.20
2023-07-08T05:04:28.294Z,13.10
2023-07-08T05:06:54.960Z,15.00
2023-07-08T05:09:24.011Z,13.70
2023-07-08T05:11:50.620Z,12.70
2023-07-08T05:14:17.297Z,13.10
2023-07-08T05:16:43.988Z,13.00
2023-07-08T05:19:10.941Z,11.50
2023-07-08T05:21:38.929Z,12.40
2023-07-08T05:24:06.267Z,10.40
2023-07-08T05:26:33.734Z,11.30
2023-07-08T05:29:01.019Z,10.30
2023-07-08T05:31:45.557Z,13.40
2023-07-08T05:34:15.012Z,13.00
2023-07-08T05:36:41.962Z,12.80
2023-07-08T05:39:08.552Z,12.90
2023-07-08T05:41:35.141Z,15.80
2023-07-08T05:44:02.462Z,15.60
2023-07-08T05:46:29.323Z,11.60
2023-07-08T05:48:56.315Z,13.10
2023-07-08T05:51:23.327Z,13.80
2023-07-08T05:53:49.878Z,12.80
2023-07-08T05:56:16.438Z,16.90
2023-07-08T05:58:42.933Z,17.90
2023-07-08T06:01:09.532Z,18.10
2023-07-08T06:03:38.244Z,15.90
2023-07-08T06:06:08.582Z,17.40
2023-07-08T06:08:35.809Z,13.90
2023-07-08T06:11:02.721Z,18.80
2023-07-08T06:13:29.850Z,17.00
2023-07-08T06:15:56.541Z,23.80
2023-07-08T06:18:23.246Z,14.50
2023-07-08T06:20:58.358Z,19.10
2023-07-08T06:23:25.980Z,16.00
2023-07-08T06:25:52.834Z,19.60
2023-07-08T06:28:20.612Z,16.40
2023-07-08T06:30:48.059Z,12.90
2023-07-08T06:33:14.940Z,11.20
2023-07-08T06:35:42.104Z,16.50
2023-07-08T06:38:09.295Z,9.90
2023-07-08T06:40:36.210Z,10.30
2023-07-08T06:43:03.751Z,11.60
2023-07-08T06:45:36.049Z,17.60
2023-07-08T06:48:02.861Z,9.80
2023-07-08T06:50:31.264Z,8.90
2023-07-08T06:52:57.791Z,16.40
2023-07-08T06:55:24.669Z,11.00
2023-07-08T06:57:51.839Z,12.20
2023-07-08T07:00:18.720Z,9.20
2023-07-08T07:02:45.375Z,10.10
2023-07-08T07:05:12.082Z,12.00
2023-07-08T07:07:38.700Z,9.30
2023-07-08T07:10:06.439Z,8.40
2023-07-08T07:12:33.017Z,10.40
2023-07-08T07:14:59.606Z,8.00
2023-07-08T07:17:27.581Z,8.70
2023-07-08T07:19:54.630Z,7.60
2023-07-08T07:22:21.260Z,8.40
2023-07-08T07:24:48.479Z,7.60
2023-07-08T07:27:15.101Z,10.20
2023-07-08T07:29:44.429Z,7.50
2023-07-08T07:32:11.715Z,5.80
2023-07-08T07:34:39.340Z,7.40
2023-07-08T07:37:17.022Z,7.00
2023-07-08T07:39:44.013Z,8.60
2023-07-08T07:42:11.836Z,8.30
2023-07-08T07:44:40.043Z,7.30
2023-07-08T07:47:07.876Z,6.80
2023-07-08T07:49:34.851Z,6.60
2023-07-08T07:52:01.788Z,8.80
2023-07-08T07:54:28.375Z,5.80
2023-07-08T07:56:54.939Z,6.70
2023-07-08T07:59:25.646Z,6.60
2023-07-08T08:01:54.293Z,5.90
2023-07-08T08:04:20.969Z,5.60
2023-07-08T08:06:47.987Z,8.30
2023-07-08T08:09:14.716Z,7.60
2023-07-08T08:11:41.254Z,7.40
2023-07-08T08:14:07.933Z,7.40
2023-07-08T08:16:34.626Z,7.90
2023-07-08T08:19:01.177Z,8.80
2023-07-08T08:21:27.839Z,4.70
2023-07-08T08:23:54.425Z,7.80
2023-07-08T08:26:20.995Z,4.60
2023-07-08T08:28:47.552Z,3.70
2023-07-08T08:31:14.196Z,4.70
2023-07-08T08:33:40.773Z,3.00
2023-07-08T08:36:07.350Z,6.40
2023-07-08T08:38:33.931Z,5.40
2023-07-08T08:41:12.438Z,5.80
2023-07-08T08:43:42.860Z,4.90
2023-07-08T08:46:28.316Z,7.10
2023-07-08T08:49:20.958Z,3.90
2023-07-08T08:51:49.878Z,7.40
2023-07-08T08:54:16.509Z,7.60
2023-07-08T08:57:20.860Z,3.00
2023-07-08T08:59:55.820Z,4.40
2023-07-08T09:02:31.297Z,7.30
2023-07-08T09:05:04.060Z,5.20
2023-07-08T09:07:39.341Z,5.10
2023-07-08T09:10:16.544Z,6.00
2023-07-08T09:12:44.076Z,5.20
2023-07-08T09:15:15.734Z,5.10
2023-07-08T09:17:42.648Z,3.70
2023-07-08T09:20:25.214Z,3.40
2023-07-08T09:23:22.683Z,6.50
2023-07-08T09:26:08.052Z,4.90
2023-07-08T09:28:43.540Z,4.70
2023-07-08T09:31:27.223Z,3.50
2023-07-08T09:34:11.778Z,3.50
2023-07-08T09:36:43.963Z,4.10
2023-07-08T09:39:16.737Z,4.20
2023-07-08T09:41:45.432Z,3.70
2023-07-08T09:44:29.465Z,4.50
2023-07-08T09:46:59.027Z,7.40
2023-07-08T09:49:35.420Z,2.60
2023-07-08T09:52:04.810Z,2.90
2023-07-08T09:54:33.020Z,2.60
2023-07-08T09:57:24.997Z,3.80
2023-07-08T10:00:07.436Z,2.90
2023-07-08T10:02:45.804Z,5.00
2023-07-08T10:05:14.829Z,4.00
2023-07-08T10:07:43.919Z,2.60
2023-07-08T10:10:16.291Z,3.90
2023-07-08T10:13:00.079Z,3.10
2023-07-08T10:15:49.412Z,4.30
2023-07-08T10:18:17.813Z,8.20
2023-07-08T10:21:19.925Z,3.20
2023-07-08T10:24:12.488Z,3.70
2023-07-08T10:26:39.273Z,3.60
2023-07-08T10:29:15.113Z,4.80
2023-07-08T10:31:57.065Z,5.00
2023-07-08T10:34:26.827Z,5.60
2023-07-08T10:36:59.297Z,3.40
2023-07-08T10:39:58.449Z,4.40
2023-07-08T10:42:56.764Z,15.10
2023-07-08T10:45:46.942Z,3.60
2023-07-08T10:48:38.287Z,5.90
2023-07-08T10:51:04.876Z,5.80
2023-07-08T10:53:42.570Z,4.40
2023-07-08T10:56:17.657Z,3.80
2023-07-08T10:59:25.139Z,3.90
2023-07-08T11:02:16.473Z,5.30
2023-07-08T11:04:52.249Z,3.80
2023-07-08T11:07:36.583Z,2.90
2023-07-08T11:10:12.120Z,5.20
2023-07-08T11:12:58.266Z,3.10
2023-07-08T11:15:34.480Z,3.50
2023-07-08T11:18:12.367Z,5.10
2023-07-08T11:20:45.933Z,4.30
2023-07-08T11:23:32.231Z,6.70
2023-07-08T11:26:17.772Z,4.70
2023-07-08T11:28:44.717Z,5.80
2023-07-08T11:31:13.386Z,5.20
2023-07-08T11:33:42.264Z,5.40
2023-07-08T11:36:10.533Z,3.50
2023-07-08T11:38:39.116Z,3.50
2023-07-08T11:41:14.766Z,4.30
2023-07-08T11:43:44.477Z,4.60
2023-07-08T11:46:18.384Z,6.80
2023-07-08T11:48:48.696Z,5.40
2023-07-08T11:51:27.554Z,6.50
2023-07-08T11:54:19.266Z,4.30
2023-07-08T11:56:59.522Z,4.70
2023-07-08T11:59:36.999Z,3.40
2023-07-08T12:02:12.973Z,5.20
2023-07-08T12:05:00.034Z,6.50
2023-07-08T12:07:38.385Z,4.90
2023-07-08T12:10:23.157Z,3.20
2023-07-08T12:12:49.701Z,4.10
2023-07-08T12:15:35.265Z,7.20
2023-07-08T12:18:11.623Z,5.10
2023-07-08T12:20:40.539Z,4.30
2023-07-08T12:23:23.492Z,6.30
2023-07-08T12:25:52.078Z,3.00
2023-07-08T12:28:20.618Z,3.20
2023-07-08T12:30:48.853Z,3.30
2023-07-08T12:33:29.128Z,3.50
2023-07-08T12:35:56.898Z,3.30
2023-07-08T12:38:40.110Z,2.70
2023-07-08T12:41:11.493Z,3.20
2023-07-08T12:43:38.250Z,4.90
2023-07-08T12:46:05.501Z,3.90
2023-07-08T12:48:34.734Z,4.80
2023-07-08T12:51:03.079Z,5.10
2023-07-08T12:53:32.336Z,3.70
2023-07-08T12:56:00.859Z,3.30
2023-07-08T12:58:30.514Z,11.70
2023-07-08T13:01:00.015Z,4.20
2023-07-08T13:03:29.994Z,4.80
2023-07-08T13:05:58.925Z,3.90
2023-07-08T13:08:29.648Z,5.80
2023-07-08T13:10:59.623Z,5.70
2023-07-08T13:13:31.297Z,3.90
2023-07-08T13:15:58.434Z,3.90
2023-07-08T13:18:36.594Z,5.40
2023-07-08T13:21:06.736Z,4.00
2023-07-08T13:23:42.463Z,3.90
2023-07-08T13:26:30.569Z,3.10
2023-07-08T13:29:04.598Z,3.00
2023-07-08T13:31:35.925Z,3.80
2023-07-08T13:34:15.948Z,4.10
2023-07-08T13:36:45.861Z,4.10
2023-07-08T13:39:21.256Z,4.40
2023-07-08T13:41:48.315Z,3.60
2023-07-08T13:44:17.433Z,3.50
2023-07-08T13:46:50.099Z,4.10
2023-07-08T13:49:22.795Z,3.10
2023-07-08T13:51:50.627Z,3.80
2023-07-08T13:54:24.681Z,4.00
2023-07-08T13:56:52.430Z,6.50
2023-07-08T13:59:23.149Z,3.60
2023-07-08T14:01:52.854Z,2.90
2023-07-08T14:04:24.162Z,4.00
2023-07-08T14:06:50.790Z,3.60
2023-07-08T14:09:20.855Z,2.80
2023-07-08T14:11:49.040Z,2.80
2023-07-08T14:14:16.103Z,8.50
2023-07-08T14:16:53.973Z,6.60
2023-07-08T14:19:28.524Z,7.10
2023-07-08T14:22:00.048Z,2.90
2023-07-08T14:24:26.696Z,3.00
2023-07-08T14:26:54.405Z,2.50
2023-07-08T14:29:20.993Z,3.70
2023-07-08T14:31:47.815Z,6.20
2023-07-08T14:34:42.224Z,3.00
2023-07-08T14:37:14.900Z,3.90
2023-07-08T14:39:41.710Z,3.70
2023-07-08T14:42:12.773Z,3.30
2023-07-08T14:44:40.999Z,2.90
2023-07-08T14:47:12.592Z,2.70
2023-07-08T14:49:39.150Z,3.00
2023-07-08T14:52:06.538Z,4.30
2023-07-08T14:54:33.333Z,6.30
2023-07-08T14:57:01.295Z,1.80
2023-07-08T14:59:31.716Z,2.70
2023-07-08T15:02:00.096Z,3.60
2023-07-08T15:04:26.918Z,3.70
2023-07-08T15:06:57.744Z,3.50
2023-07-08T15:09:24.267Z,4.70
2023-07-08T15:11:50.900Z,4.20
2023-07-08T15:14:21.876Z,4.70
2023-07-08T15:16:52.432Z,3.00
2023-07-08T15:19:20.939Z,3.10
2023-07-08T15:21:47.650Z,3.40
2023-07-08T15:24:15.744Z,3.40
2023-07-08T15:26:45.630Z,5.50
2023-07-08T15:29:23.139Z,4.20
2023-07-08T15:31:50.449Z,3.60
2023-07-08T15:34:19.754Z,6.00
2023-07-08T15:36:47.418Z,3.00
2023-07-08T15:39:14.875Z,4.00
2023-07-08T15:41:42.845Z,2.10
2023-07-08T15:44:14.134Z,4.30
2023-07-08T15:46:51.125Z,5.10
2023-07-08T15:49:23.589Z,3.80
2023-07-08T15:51:50.769Z,4.90
2023-07-08T15:54:19.573Z,3.10
2023-07-08T15:56:49.003Z,4.20
2023-07-08T15:59:22.335Z,3.60
2023-07-08T16:04:35.636Z,5.80
2023-07-08T16:07:02.499Z,5.80
2023-07-08T16:09:29.104Z,4.30
2023-07-08T16:11:56.049Z,4.50
2023-07-08T16:14:24.642Z,3.50
2023-07-08T16:16:52.985Z,5.10
2023-07-08T16:19:19.807Z,3.60
2023-07-08T16:21:47.523Z,3.00
2023-07-08T16:24:14.096Z,6.00
2023-07-08T16:26:41.532Z,3.90
2023-07-08T16:29:15.629Z,4.00
2023-07-08T16:31:42.358Z,5.20
2023-07-08T16:34:11.039Z,5.20
2023-07-08T16:36:38.813Z,4.80
2023-07-08T16:39:05.444Z,3.30
2023-07-08T16:41:36.091Z,3.20
2023-07-08T16:44:09.592Z,4.00
2023-07-08T16:46:36.229Z,4.30
2023-07-08T16:49:02.885Z,3.60
2023-07-08T16:51:29.598Z,4.00
2023-07-08T16:54:12.862Z,4.20
2023-07-08T16:56:41.206Z,4.30
2023-07-08T16:59:08.747Z,3.50
2023-07-08T17:01:35.792Z,4.60
2023-07-08T17:04:02.661Z,5.00
2023-07-08T17:06:29.478Z,6.20
2023-07-08T17:08:56.309Z,5.20
2023-07-08T17:11:28.774Z,4.60
2023-07-08T17:13:56.262Z,5.90
2023-07-08T17:16:33.369Z,3.80
2023-07-08T17:19:00.552Z,5.10
2023-07-08T17:21:27.179Z,5.60
2023-07-08T17:23:54.030Z,4.90
2023-07-08T17:26:20.693Z,8.60
2023-07-08T17:28:48.866Z,5.40
2023-07-08T17:31:23.557Z,9.00
2023-07-08T17:33:58.223Z,8.50
2023-07-08T17:36:30.155Z,5.60
2023-07-08T17:38:57.967Z,4.20
2023-07-08T17:41:24.938Z,5.70
2023-07-08T17:43:51.803Z,6.40
2023-07-08T17:46:22.871Z,4.40
2023-07-08T17:48:50.675Z,5.50
2023-07-08T17:51:19.547Z,6.30
2023-07-08T17:53:47.866Z,8.00
2023-07-08T17:56:24.242Z,5.00
2023-07-08T17:58:53.152Z,6.90
2023-07-08T18:01:21.975Z,49.10
2023-07-08T18:03:48.637Z,12.70
2023-07-08T18:06:16.164Z,17.30
2023-07-08T18:08:42.743Z,9.70
2023-07-08T18:11:13.471Z,9.60
2023-07-08T18:13:44.456Z,13.00
2023-07-08T18:16:12.909Z,7.80
2023-07-08T18:18:39.688Z,7.60
2023-07-08T18:21:20.141Z,8.30
2023-07-08T18:23:48.932Z,10.90
2023-07-08T18:26:24.039Z,7.40
2023-07-08T18:28:51.209Z,11.20
2023-07-08T18:31:21.783Z,9.30
2023-07-08T18:33:49.769Z,8.40
2023-07-08T18:36:16.860Z,6.60
2023-07-08T18:38:43.776Z,7.00
2023-07-08T18:41:19.612Z,7.80
2023-07-08T18:43:46.629Z,8.10
2023-07-08T18:46:14.932Z,8.90
2023-07-08T18:48:42.466Z,7.00
2023-07-08T18:51:25.969Z,10.20
2023-07-08T18:53:52.825Z,8.00
2023-07-08T18:56:19.508Z,6.80
2023-07-08T18:58:49.463Z,9.40
2023-07-08T19:01:24.842Z,7.40
2023-07-08T19:03:52.132Z,10.00
2023-07-08T19:06:19.511Z,18.20
2023-07-08T19:08:48.320Z,19.10
2023-07-08T19:11:24.244Z,8.60
2023-07-08T19:13:51.519Z,9.80
2023-07-08T19:16:21.642Z,10.10
2023-07-08T19:18:50.128Z,9.40
2023-07-08T19:21:21.501Z,9.70
2023-07-08T19:23:50.727Z,7.70
2023-07-08T19:26:19.411Z,11.40
2023-07-08T19:28:46.286Z,11.90
2023-07-08T19:31:32.464Z,39.40
2023-07-08T19:34:03.116Z,12.40
2023-07-08T19:36:31.897Z,9.40
2023-07-08T19:38:58.733Z,10.00
2023-07-08T19:41:31.055Z,8.20
2023-07-08T19:43:59.501Z,7.90
2023-07-08T19:46:26.298Z,9.20
2023-07-08T19:48:52.936Z,9.10
2023-07-08T19:51:19.582Z,11.30
2023-07-08T19:53:46.125Z,13.20
2023-07-08T19:56:23.740Z,16.40
2023-07-08T19:58:51.189Z,12.40
2023-07-08T20:01:17.979Z,13.10
2023-07-08T20:03:44.602Z,13.80
2023-07-08T20:06:19.904Z,12.00
2023-07-08T20:08:47.258Z,10.90
2023-07-08T20:11:15.731Z,12.10
2023-07-08T20:13:42.413Z,10.80
2023-07-08T20:16:18.820Z,10.30
2023-07-08T20:18:45.443Z,10.60
2023-07-08T20:21:12.483Z,14.10
2023-07-08T20:23:39.705Z,9.20
2023-07-08T20:26:35.397Z,9.60
2023-07-08T20:29:03.873Z,11.40
2023-07-08T20:31:32.538Z,10.50
2023-07-08T20:34:00.474Z,10.20
2023-07-08T20:36:28.425Z,10.10
2023-07-08T20:38:56.315Z,8.50
2023-07-08T20:41:23.204Z,7.60
2023-07-08T20:43:50.173Z,9.40
2023-07-08T20:46:26.624Z,7.60
2023-07-08T20:48:59.346Z,7.90
2023-07-08T20:51:26.074Z,11.20
2023-07-08T20:53:54.139Z,7.30
2023-07-08T20:56:31.304Z,7.40
2023-07-08T20:58:59.174Z,8.20
2023-07-08T21:01:26.828Z,12.00
2023-07-08T21:03:53.498Z,9.60
2023-07-08T21:06:24.019Z,8.30
2023-07-08T21:08:51.642Z,12.30
2023-07-08T21:11:19.148Z,15.20
2023-07-08T21:13:45.856Z,8.20
2023-07-08T21:16:18.863Z,7.80
2023-07-08T21:18:46.091Z,10.50
2023-07-08T21:21:13.134Z,8.50
2023-07-08T21:23:40.146Z,9.00
2023-07-08T21:26:27.953Z,11.40
2023-07-08T21:28:58.624Z,9.50
2023-07-08T21:31:25.638Z,7.40
2023-07-08T21:33:52.386Z,9.70
2023-07-08T21:36:33.910Z,10.90
2023-07-08T21:39:04.128Z,8.90
2023-07-08T21:41:31.996Z,8.70
2023-07-08T21:43:58.673Z,9.00
2023-07-08T21:46:25.709Z,10.10
2023-07-08T21:48:53.812Z,8.00
2023-07-08T21:51:26.422Z,9.40
2023-07-08T21:53:54.074Z,7.60
2023-07-08T21:56:20.749Z,10.50
2023-07-08T21:58:47.411Z,7.10
2023-07-08T22:01:20.027Z,7.60
2023-07-08T22:03:48.118Z,8.80
2023-07-08T22:06:16.569Z,9.20
2023-07-08T22:08:43.188Z,7.50
2023-07-08T22:11:21.422Z,14.80
2023-07-08T22:13:48.225Z,8.70
2023-07-08T22:16:18.075Z,6.60
2023-07-08T22:18:46.123Z,8.70
2023-07-08T22:21:33.184Z,7.60
2023-07-08T22:24:06.152Z,6.80
2023-07-08T22:26:36.074Z,6.40
2023-07-08T22:29:03.661Z,9.40
2023-07-08T22:31:39.592Z,7.30
2023-07-08T22:34:12.807Z,6.50
2023-07-08T22:36:40.657Z,6.00
2023-07-08T22:39:09.123Z,7.10
2023-07-08T22:41:49.861Z,8.60
2023-07-08T22:44:19.274Z,6.30
2023-07-08T22:46:46.655Z,7.90
2023-07-08T22:49:23.547Z,7.50
2023-07-08T22:52:00.979Z,6.80
2023-07-08T22:54:28.511Z,6.40
2023-07-08T22:56:55.226Z,18.10
2023-07-08T22:59:21.763Z,8.70
2023-07-08T23:01:48.286Z,10.90
2023-07-08T23:04:14.946Z,7.40
2023-07-08T23:06:43.547Z,6.50
2023-07-08T23:09:15.994Z,6.30
2023-07-08T23:11:43.949Z,8.00
2023-07-08T23:14:11.710Z,6.40
2023-07-08T23:16:38.971Z,7.20
2023-07-08T23:19:07.593Z,7.50
2023-07-08T23:21:34.263Z,8.60
2023-07-08T23:24:00.922Z,8.10
2023-07-08T23:26:32.888Z,7.70
2023-07-08T23:29:01.031Z,7.60
2023-07-08T23:31:29.788Z,7.50
2023-07-08T23:33:56.892Z,7.00
2023-07-08T23:36:35.854Z,6.10
2023-07-08T23:39:11.166Z,6.80
2023-07-08T23:41:37.733Z,6.70
2023-07-08T23:44:04.443Z,7.10
2023-07-08T23:46:32.459Z,9.10
2023-07-08T23:49:03.939Z,8.00
2023-07-08T23:51:30.524Z,7.70
2023-07-08T23:53:57.059Z,7.20
2023-07-08T23:56:29.729Z,7.20
2023-07-08T23:58:56.724Z,8.40
